Portada
METAR-TAF:

METAR-TAF

Aeroports :

Derby, Austràlia

latitud: 17-34-53S, longitud: 123-49-42E, altitud: 91 m

Observació

L'informe es va fer fa 32 minuts, a les 11:00 UTC
Vent 4 kt del Nord/Nord-Oest
Temperatura 25°C
Humitat 44%
Pressió 1010 hPa
Visibilitat 10 km o més

METAR: YCIN 251100Z AUTO 34004KT 9999 // NCD 25/12 Q1010

Hora: 19:32 (11:32 UTC)

Pronòstic

L'informe es va fer fa 4 hores i 57 minuts, a les 06:35 UTC
Pronòstic vàlid del 25 a les 08 UTC al 25 a les 20 UTC
Vent 10 kt del Est
Visibilitat 10 km o més
sense núvols per sota de 1500 mi sense presència de cumulonimbus.
A partir de les 25 a les 1000 UTC
Vent 10 kt del Oest/Nord-Oest
Visibilitat 10 km o més
sense núvols per sota de 1500 mi sense presència de cumulonimbus.
A partir de les 25 a les 1400 UTC
Vent 7 kt del Sud-Oest
Visibilitat 10 km o més
sense núvols per sota de 1500 mi sense presència de cumulonimbus.

TAF: YCIN 250635Z 2508/2520 10010KT CAVOK FM251000 29010KT CAVOK FM251400 22007KT CAVOK

Observacions i pronòstics meteorològics de més de 4000 aeroports (METAR i TAF).

Les estacions disponibles són els punts grocs i vermells al mapa.

Posi el ratolí al punt desitjat per veure el nom de l'estació.

Feu clic per veure les observacions i els pronòstics meteorològics.

Per canviar el mapa: feu clic els botons verds amb una creu de color negre per apropar; al botó verd amb un guió per allunyar la imatge; o en les fletxes verdes per a mapes adjacents.


METAR-TAF: